WAJJ/DJJ METAR and TAF weather

Enter ICAO airport designator
Station Type Date Time Source
WAJJ METAR 2020/09/18 16:30 UTC NOAA

WAJJ 181630Z 00000KT 9999 SCT012 25/22 Q1010 NOSIG


Station Type Date Time Source
WAJJ Decoded METAR 2020/09/18 16:30 UTC NOAA

Jayapura / Sentani, Indonesia (WAJJ) 02-34S 140-29E 99M
Sep 18, 2020 - 12:30 PM EDT / 2020.09.18 1630 UTC
Wind: Calm:0
Visibility: greater than 7 mile(s):0
Sky conditions: partly cloudy
Temperature: 77 F (25 C)
Dew Point: 71 F (22 C)
Relative Humidity: 83%
Pressure (altimeter): 29.83 in. Hg (1010 hPa)
ob: WAJJ 181630Z 00000KT 9999 SCT012 25/22 Q1010 NOSIG
cycle: 16

Station Type Date Time Source
WAJJ TAF 2013/03/11 12:00 UTC NOAA

TAF WAJJ 111100Z 1112/1212 29006KT 5000 HZ SCT016
TEMPO 1113/1121 4000 RA FEW014CB
BECMG 1200/1202 28012KT 9999
TEMPO 1207/1212 6000 RA FEW014CB

Example: see airport list